createdAt,value
2022-09-23T00:02:47.780Z,5.87
2022-09-23T00:05:58.732Z,5.88
2022-09-23T00:09:01.554Z,5.72
2022-09-23T00:12:08.818Z,5.97
2022-09-23T00:15:11.759Z,5.98
2022-09-23T00:18:14.919Z,5.88
2022-09-23T00:21:18.450Z,5.79
2022-09-23T00:24:21.480Z,5.72
2022-09-23T00:27:24.060Z,5.70
2022-09-23T00:30:27.320Z,5.71
2022-09-23T00:33:29.963Z,5.64
2022-09-23T00:36:32.900Z,5.74
2022-09-23T00:39:35.420Z,5.87
2022-09-23T00:42:38.339Z,5.91
2022-09-23T00:45:45.271Z,5.79
2022-09-23T00:48:52.081Z,5.73
2022-09-23T00:52:00.704Z,5.73
2022-09-23T00:55:10.572Z,5.75
2022-09-23T00:58:17.824Z,5.68
2022-09-23T01:01:21.452Z,5.66
2022-09-23T01:04:26.012Z,5.60
2022-09-23T01:07:30.132Z,5.55
2022-09-23T01:11:17.236Z,5.46
2022-09-23T01:14:38.683Z,5.34
2022-09-23T01:17:47.499Z,5.24
2022-09-23T01:20:56.352Z,5.42
2022-09-23T01:24:27.841Z,5.35
2022-09-23T01:27:33.185Z,5.32
2022-09-23T01:30:36.191Z,5.24
2022-09-23T01:34:20.074Z,5.28
2022-09-23T01:38:16.961Z,5.20
2022-09-23T01:45:17.687Z,5.21
2022-09-23T01:48:27.173Z,5.16
2022-09-23T01:51:36.302Z,5.21
2022-09-23T01:54:46.625Z,4.87
2022-09-23T01:58:05.009Z,5.05
2022-09-23T02:01:09.902Z,5.05
2022-09-23T02:08:34.894Z,4.92
2022-09-23T02:11:42.714Z,5.07
2022-09-23T02:14:53.723Z,4.96
2022-09-23T02:18:08.770Z,4.99
2022-09-23T02:21:14.612Z,5.03
2022-09-23T02:24:21.811Z,5.16
2022-09-23T02:27:32.462Z,5.11
2022-09-23T02:30:49.094Z,5.03
2022-09-23T02:33:56.821Z,5.10
2022-09-23T02:37:26.433Z,5.07
2022-09-23T02:40:36.464Z,5.05
2022-09-23T02:44:15.509Z,5.03
2022-09-23T02:47:24.140Z,4.82
2022-09-23T02:50:27.163Z,4.74
2022-09-23T02:53:34.891Z,4.82
2022-09-23T02:56:39.140Z,4.94
2022-09-23T02:59:42.155Z,4.86
2022-09-23T03:03:11.068Z,4.89
2022-09-23T03:06:36.908Z,4.87
2022-09-23T03:09:51.521Z,4.84
2022-09-23T03:13:16.124Z,5.00
2022-09-23T03:16:43.692Z,4.86
2022-09-23T03:19:51.262Z,4.87
2022-09-23T03:23:00.891Z,4.63
2022-09-23T03:26:21.160Z,4.71
2022-09-23T03:29:24.437Z,4.72
2022-09-23T03:32:29.150Z,4.78
2022-09-23T03:35:55.349Z,4.51
2022-09-23T03:39:06.499Z,4.60
2022-09-23T03:42:26.321Z,4.43
2022-09-23T03:45:34.031Z,4.48
2022-09-23T03:48:37.132Z,4.41
2022-09-23T03:51:44.420Z,4.27
2022-09-23T03:54:47.800Z,4.25
2022-09-23T03:57:50.402Z,4.20
2022-09-23T04:00:54.798Z,4.01
2022-09-23T04:03:57.809Z,4.34
2022-09-23T04:07:00.683Z,3.93
2022-09-23T04:10:05.040Z,4.24
2022-09-23T04:13:08.760Z,4.15
2022-09-23T04:16:11.644Z,4.27
2022-09-23T04:19:15.455Z,4.35
2022-09-23T04:22:18.357Z,4.36
2022-09-23T04:25:21.416Z,4.21
2022-09-23T04:28:25.028Z,4.34
2022-09-23T04:31:28.800Z,4.31
2022-09-23T04:34:31.694Z,4.29
2022-09-23T04:37:34.318Z,4.40
2022-09-23T04:40:37.295Z,4.45
2022-09-23T04:43:40.342Z,4.32
2022-09-23T04:46:47.359Z,4.34
2022-09-23T04:49:50.033Z,4.54
2022-09-23T04:53:00.034Z,4.70
2022-09-23T04:56:09.856Z,4.69
2022-09-23T04:59:12.826Z,4.76
2022-09-23T05:02:15.945Z,4.75
2022-09-23T05:05:21.300Z,4.61
2022-09-23T05:08:23.928Z,4.57
2022-09-23T05:11:30.259Z,4.64
2022-09-23T05:14:32.806Z,4.60
2022-09-23T05:17:40.113Z,4.69
2022-09-23T05:20:42.726Z,4.68
2022-09-23T05:23:58.884Z,4.73
2022-09-23T05:27:01.632Z,4.79
2022-09-23T05:30:04.935Z,5.08
2022-09-23T05:33:07.529Z,5.28
2022-09-23T05:36:10.483Z,5.31
2022-09-23T05:39:13.068Z,5.40
2022-09-23T05:42:18.238Z,5.46
2022-09-23T05:45:21.076Z,5.53
2022-09-23T05:48:24.330Z,5.90
2022-09-23T05:51:30.935Z,5.91
2022-09-23T05:54:34.384Z,6.04
2022-09-23T05:57:37.200Z,6.08
2022-09-23T06:00:40.967Z,6.12
2022-09-23T06:03:51.016Z,6.10
2022-09-23T06:06:53.535Z,6.09
2022-09-23T06:09:57.115Z,6.10
2022-09-23T06:12:59.660Z,6.17
2022-09-23T06:16:03.341Z,6.49
2022-09-23T06:19:07.017Z,6.60
2022-09-23T06:22:11.092Z,6.95
2022-09-23T06:25:13.747Z,7.15
2022-09-23T06:28:16.761Z,7.36
2022-09-23T06:31:19.458Z,7.48
2022-09-23T06:34:22.437Z,7.76
2022-09-23T06:37:25.343Z,7.99
2022-09-23T06:40:28.357Z,8.16
2022-09-23T06:43:31.725Z,8.22
2022-09-23T06:46:36.934Z,8.07
2022-09-23T06:49:39.665Z,8.34
2022-09-23T06:52:42.576Z,8.49
2022-09-23T06:55:45.141Z,8.59
2022-09-23T06:58:48.304Z,8.71
2022-09-23T07:01:51.039Z,8.96
2022-09-23T07:04:57.095Z,9.10
2022-09-23T07:07:59.692Z,9.26
2022-09-23T07:11:05.653Z,9.54
2022-09-23T07:14:08.223Z,9.62
2022-09-23T07:17:12.565Z,9.95
2022-09-23T07:20:17.966Z,10.06
2022-09-23T07:23:21.031Z,10.14
2022-09-23T07:26:24.618Z,10.23
2022-09-23T07:29:27.965Z,10.36
2022-09-23T07:32:39.447Z,10.56
2022-09-23T07:35:47.749Z,10.74
2022-09-23T07:38:50.815Z,10.90
2022-09-23T07:41:53.694Z,11.03
2022-09-23T07:44:57.231Z,11.14
2022-09-23T07:48:01.188Z,11.18
2022-09-23T07:51:10.061Z,11.33
2022-09-23T07:54:15.822Z,11.40
2022-09-23T07:57:19.853Z,11.53
2022-09-23T08:00:22.969Z,11.49
2022-09-23T08:03:27.414Z,11.65
2022-09-23T08:06:30.443Z,11.65
2022-09-23T08:09:39.428Z,11.73
2022-09-23T08:12:42.012Z,11.80
2022-09-23T08:15:52.009Z,11.98
2022-09-23T08:18:57.328Z,12.02
2022-09-23T08:22:00.594Z,12.18
2022-09-23T08:25:03.253Z,12.30
2022-09-23T08:28:06.289Z,12.32
2022-09-23T08:31:08.934Z,12.40
2022-09-23T08:34:12.724Z,12.47
2022-09-23T08:37:15.290Z,12.50
2022-09-23T08:40:19.361Z,12.62
2022-09-23T08:43:31.312Z,12.78
2022-09-23T08:46:54.803Z,12.77
2022-09-23T08:50:28.953Z,13.04
2022-09-23T08:53:37.683Z,13.09
2022-09-23T08:56:44.578Z,13.36
2022-09-23T08:59:48.330Z,13.41
2022-09-23T09:02:54.416Z,13.69
2022-09-23T09:05:58.968Z,13.81
2022-09-23T09:09:03.610Z,13.81
2022-09-23T09:12:18.937Z,13.78
2022-09-23T09:15:26.752Z,13.97
2022-09-23T09:18:32.996Z,14.12
2022-09-23T09:21:39.975Z,14.18
2022-09-23T09:24:51.327Z,14.36
2022-09-23T09:27:56.032Z,14.50
2022-09-23T09:31:24.213Z,14.73
2022-09-23T09:34:43.682Z,14.57
2022-09-23T09:37:48.114Z,14.55
2022-09-23T09:40:51.036Z,14.61
2022-09-23T09:43:59.276Z,14.73
2022-09-23T09:47:15.131Z,14.88
2022-09-23T09:50:53.249Z,14.97
2022-09-23T09:54:17.206Z,14.99
2022-09-23T09:57:32.121Z,15.10
2022-09-23T10:00:45.703Z,15.32
2022-09-23T10:03:53.052Z,15.52
2022-09-23T10:07:15.529Z,15.73
2022-09-23T10:10:32.802Z,15.70
2022-09-23T10:13:37.919Z,15.60
2022-09-23T10:16:42.086Z,15.83
2022-09-23T10:19:48.437Z,15.82
2022-09-23T10:22:51.226Z,15.76
2022-09-23T10:26:03.423Z,16.01
2022-09-23T10:29:39.996Z,16.16
2022-09-23T10:32:45.705Z,16.15
2022-09-23T10:35:57.205Z,16.31
2022-09-23T10:39:32.523Z,16.31
2022-09-23T10:43:23.932Z,16.09
2022-09-23T10:47:01.662Z,16.33
2022-09-23T10:50:16.905Z,16.45
2022-09-23T10:53:53.698Z,16.53
2022-09-23T10:57:30.043Z,16.53
2022-09-23T11:01:12.395Z,16.76
2022-09-23T11:04:42.818Z,16.99
2022-09-23T11:07:57.283Z,16.61
2022-09-23T11:11:27.263Z,16.36
2022-09-23T11:14:55.269Z,16.61
2022-09-23T11:18:23.822Z,16.67
2022-09-23T11:21:50.104Z,16.95
2022-09-23T11:25:02.840Z,17.12
2022-09-23T11:28:24.177Z,17.12
2022-09-23T11:31:47.398Z,16.41
2022-09-23T11:35:02.685Z,16.40
2022-09-23T11:38:12.113Z,16.85
2022-09-23T11:41:34.369Z,16.63
2022-09-23T11:44:41.912Z,16.84
2022-09-23T11:47:52.039Z,17.01
2022-09-23T11:51:13.806Z,17.37
2022-09-23T11:54:21.408Z,16.97
2022-09-23T11:57:45.255Z,16.79
2022-09-23T12:01:09.485Z,17.10
2022-09-23T12:04:29.555Z,17.20
2022-09-23T12:07:56.596Z,17.07
2022-09-23T12:11:25.665Z,16.75
2022-09-23T12:14:43.552Z,16.31
2022-09-23T12:17:46.594Z,15.92
2022-09-23T12:21:32.723Z,15.72
2022-09-23T12:25:10.386Z,15.59
2022-09-23T12:28:35.483Z,15.44
2022-09-23T12:31:42.028Z,15.37
2022-09-23T12:34:49.944Z,15.64
2022-09-23T12:37:53.291Z,15.62
2022-09-23T12:40:56.556Z,15.55
2022-09-23T12:44:15.419Z,15.58
2022-09-23T12:47:21.228Z,15.97
2022-09-23T12:50:54.185Z,16.38
2022-09-23T12:53:59.880Z,16.57
2022-09-23T12:57:04.110Z,16.78
2022-09-23T13:00:12.611Z,16.62
2022-09-23T13:03:35.160Z,16.78
2022-09-23T13:06:43.134Z,16.98
2022-09-23T13:09:49.769Z,17.03
2022-09-23T13:12:53.404Z,17.00
2022-09-23T13:16:09.468Z,16.99
2022-09-23T13:19:27.202Z,17.08
2022-09-23T13:23:15.894Z,17.16
2022-09-23T13:26:18.675Z,17.09
2022-09-23T13:29:35.106Z,16.82
2022-09-23T13:33:05.451Z,17.07
2022-09-23T13:36:17.013Z,16.90
2022-09-23T13:39:25.180Z,17.00
2022-09-23T13:42:30.391Z,17.05
2022-09-23T13:45:40.028Z,17.10
2022-09-23T13:48:46.079Z,17.00
2022-09-23T13:51:48.722Z,16.63
2022-09-23T13:54:51.912Z,16.63
2022-09-23T13:58:24.375Z,16.84
2022-09-23T14:01:33.019Z,16.98
2022-09-23T14:04:36.116Z,16.96
2022-09-23T14:07:38.796Z,16.83
2022-09-23T14:10:45.895Z,16.77
2022-09-23T14:13:54.303Z,16.61
2022-09-23T14:16:58.588Z,16.75
2022-09-23T14:20:01.342Z,16.82
2022-09-23T14:23:11.873Z,16.83
2022-09-23T14:26:14.415Z,16.68
2022-09-23T14:29:24.716Z,16.71
2022-09-23T14:32:29.641Z,16.52
2022-09-23T14:35:42.831Z,16.53
2022-09-23T14:38:51.182Z,16.48
2022-09-23T14:41:54.111Z,16.38
2022-09-23T14:44:56.724Z,16.32
2022-09-23T14:48:05.092Z,16.20
2022-09-23T14:51:14.481Z,16.16
2022-09-23T14:54:41.182Z,15.97
2022-09-23T14:57:45.292Z,15.98
2022-09-23T15:00:55.837Z,15.88
2022-09-23T15:04:00.480Z,15.83
2022-09-23T15:07:16.469Z,15.78
2022-09-23T15:10:28.192Z,15.70
2022-09-23T15:13:33.536Z,15.62
2022-09-23T15:16:39.457Z,15.54
2022-09-23T15:19:42.849Z,15.42
2022-09-23T15:22:51.396Z,15.40
2022-09-23T15:25:54.216Z,15.22
2022-09-23T15:28:58.401Z,15.19
2022-09-23T15:32:01.575Z,15.05
2022-09-23T15:35:05.338Z,14.90
2022-09-23T15:38:09.628Z,14.75
2022-09-23T15:41:14.320Z,14.64
2022-09-23T15:44:20.444Z,14.48
2022-09-23T15:47:22.991Z,14.28
2022-09-23T15:50:26.907Z,14.22
2022-09-23T15:53:29.974Z,14.09
2022-09-23T15:56:33.446Z,13.89
2022-09-23T15:59:38.247Z,13.81
2022-09-23T16:02:41.496Z,13.71
2022-09-23T16:05:46.724Z,13.58
2022-09-23T16:08:49.321Z,13.48
2022-09-23T16:11:52.325Z,13.34
2022-09-23T16:14:54.876Z,13.25
2022-09-23T16:17:58.899Z,13.11
2022-09-23T16:21:04.512Z,13.00
2022-09-23T16:24:28.192Z,12.85
2022-09-23T16:27:31.053Z,12.72
2022-09-23T16:30:34.258Z,12.57
2022-09-23T16:33:36.831Z,12.45
2022-09-23T16:36:41.950Z,12.34
2022-09-23T16:39:44.513Z,12.18
2022-09-23T16:42:49.039Z,12.04
2022-09-23T16:45:51.649Z,11.90
2022-09-23T16:48:56.207Z,11.69
2022-09-23T16:52:01.548Z,11.63
2022-09-23T16:55:05.445Z,11.50
2022-09-23T16:58:07.959Z,11.36
2022-09-23T17:01:37.563Z,11.27
2022-09-23T17:04:40.175Z,11.04
2022-09-23T17:07:43.341Z,11.00
2022-09-23T17:10:57.096Z,10.95
2022-09-23T17:14:00.884Z,10.84
2022-09-23T17:17:03.445Z,10.70
2022-09-23T17:20:07.228Z,10.68
2022-09-23T17:23:09.753Z,10.58
2022-09-23T17:26:13.251Z,10.45
2022-09-23T17:29:16.521Z,10.38
2022-09-23T17:32:20.916Z,10.30
2022-09-23T17:35:23.527Z,10.23
2022-09-23T17:38:29.301Z,10.15
2022-09-23T17:41:32.014Z,9.94
2022-09-23T17:44:36.255Z,9.92
2022-09-23T17:47:41.625Z,9.86
2022-09-23T17:50:54.088Z,9.76
2022-09-23T17:53:57.787Z,9.74
2022-09-23T17:57:00.739Z,9.69
2022-09-23T18:00:03.999Z,9.60
2022-09-23T18:03:14.938Z,9.48
2022-09-23T18:06:20.052Z,9.39
2022-09-23T18:09:22.752Z,9.39
2022-09-23T18:12:25.599Z,9.31
2022-09-23T18:15:28.144Z,9.30
2022-09-23T18:18:31.324Z,9.19
2022-09-23T18:21:40.497Z,9.16
2022-09-23T18:24:43.988Z,9.11
2022-09-23T18:27:46.618Z,9.02
2022-09-23T18:30:57.253Z,8.91
2022-09-23T18:34:00.927Z,8.90
2022-09-23T18:37:08.654Z,8.85
2022-09-23T18:40:19.199Z,8.84
2022-09-23T18:43:31.076Z,8.81
2022-09-23T18:46:37.633Z,8.73
2022-09-23T18:49:59.147Z,8.65
2022-09-23T18:53:01.702Z,8.61
2022-09-23T18:56:15.960Z,8.56
2022-09-23T18:59:20.898Z,8.50
2022-09-23T19:02:23.815Z,8.41
2022-09-23T19:05:26.448Z,8.25
2022-09-23T19:08:29.472Z,8.33
2022-09-23T19:11:32.729Z,8.19
2022-09-23T19:14:35.527Z,8.12
2022-09-23T19:17:38.086Z,8.13
2022-09-23T19:20:54.432Z,8.06
2022-09-23T19:24:05.981Z,8.00
2022-09-23T19:27:08.934Z,8.01
2022-09-23T19:30:13.144Z,7.95
2022-09-23T19:33:16.229Z,7.90
2022-09-23T19:36:23.578Z,7.85
2022-09-23T19:39:30.583Z,7.80
2022-09-23T19:42:34.000Z,7.78
2022-09-23T19:45:38.497Z,7.69
2022-09-23T19:48:41.372Z,7.68
2022-09-23T19:51:46.530Z,7.59
2022-09-23T19:54:49.091Z,7.51
2022-09-23T19:57:51.959Z,7.46
2022-09-23T20:00:54.579Z,7.53
2022-09-23T20:03:57.880Z,7.49
2022-09-23T20:07:01.109Z,7.46
2022-09-23T20:10:04.024Z,7.42
2022-09-23T20:13:07.576Z,7.38
2022-09-23T20:16:13.700Z,7.22
2022-09-23T20:19:16.363Z,7.26
2022-09-23T20:22:27.487Z,7.08
2022-09-23T20:25:53.447Z,7.00
2022-09-23T20:28:56.378Z,7.18
2022-09-23T20:31:59.225Z,7.18
2022-09-23T20:35:02.117Z,7.14
2022-09-23T20:38:07.989Z,7.08
2022-09-23T20:41:11.169Z,7.06
2022-09-23T20:44:13.980Z,7.04
2022-09-23T20:47:18.489Z,6.99
2022-09-23T20:50:21.221Z,7.03
2022-09-23T20:53:24.484Z,6.86
2022-09-23T20:56:27.607Z,6.79
2022-09-23T20:59:30.499Z,6.80
2022-09-23T21:02:33.041Z,6.84
2022-09-23T21:05:36.136Z,6.74
2022-09-23T21:08:39.377Z,6.75
2022-09-23T21:11:42.515Z,6.75
2022-09-23T21:14:45.116Z,6.80
2022-09-23T21:17:47.966Z,6.62
2022-09-23T21:20:57.394Z,6.66
2022-09-23T21:24:23.691Z,6.70
2022-09-23T21:27:23.495Z,6.68
2022-09-23T21:30:26.293Z,6.50
2022-09-23T21:33:30.615Z,6.39
2022-09-23T21:36:37.234Z,6.48
2022-09-23T21:39:39.857Z,6.59
2022-09-23T21:42:42.712Z,6.34
2022-09-23T21:45:45.200Z,6.44
2022-09-23T21:48:53.672Z,6.38
2022-09-23T21:52:00.734Z,6.22
2022-09-23T21:55:05.798Z,6.35
2022-09-23T21:58:08.415Z,6.21
2022-09-23T22:01:17.981Z,6.23
2022-09-23T22:04:21.182Z,6.24
2022-09-23T22:07:23.925Z,6.16
2022-09-23T22:10:26.885Z,6.05
2022-09-23T22:13:29.479Z,6.01
2022-09-23T22:16:33.366Z,6.00
2022-09-23T22:19:42.691Z,6.08
2022-09-23T22:22:49.533Z,6.07
2022-09-23T22:25:59.511Z,6.19
2022-09-23T22:29:25.741Z,6.19
2022-09-23T22:32:40.595Z,6.03
2022-09-23T22:35:43.517Z,6.04
2022-09-23T22:38:46.042Z,5.94
2022-09-23T22:41:50.664Z,6.00
2022-09-23T22:44:55.565Z,6.09
2022-09-23T22:47:58.615Z,6.02
2022-09-23T22:51:04.456Z,5.94
2022-09-23T22:54:08.944Z,5.84
2022-09-23T22:57:11.542Z,5.75
2022-09-23T23:00:14.692Z,5.82
2022-09-23T23:03:20.546Z,5.83
2022-09-23T23:06:24.193Z,5.71
2022-09-23T23:09:26.757Z,5.78
2022-09-23T23:12:29.696Z,5.61
2022-09-23T23:15:32.595Z,5.73
2022-09-23T23:18:40.097Z,5.76
2022-09-23T23:21:43.774Z,5.54
2022-09-23T23:24:46.624Z,5.63
2022-09-23T23:27:49.208Z,5.66
2022-09-23T23:30:52.178Z,5.58
2022-09-23T23:33:55.095Z,5.70
2022-09-23T23:36:57.963Z,5.69
2022-09-23T23:40:00.648Z,5.64
2022-09-23T23:43:05.292Z,5.59
2022-09-23T23:46:08.428Z,5.58
2022-09-23T23:49:11.420Z,5.66
2022-09-23T23:52:13.956Z,5.66
2022-09-23T23:55:17.053Z,5.59
2022-09-23T23:58:19.596Z,5.52
